createdAt,value
2018-03-20T00:01:46.428Z,-2.30
2018-03-20T00:06:40.952Z,-2.40
2018-03-20T00:11:35.240Z,-2.40
2018-03-20T00:16:29.676Z,-2.40
2018-03-20T00:21:23.980Z,-2.30
2018-03-20T00:26:18.300Z,-2.20
2018-03-20T00:31:13.404Z,-2.40
2018-03-20T00:36:08.506Z,-2.50
2018-03-20T00:41:02.832Z,-2.50
2018-03-20T00:45:57.926Z,-2.50
2018-03-20T00:50:52.248Z,-2.50
2018-03-20T00:55:47.336Z,-2.50
2018-03-20T01:00:41.669Z,-2.50
2018-03-20T01:05:36.762Z,-2.70
2018-03-20T01:10:31.090Z,-2.70
2018-03-20T01:15:26.179Z,-2.80
2018-03-20T01:20:20.477Z,-2.80
2018-03-20T01:25:14.818Z,-2.90
2018-03-20T01:30:09.352Z,-3.00
2018-03-20T01:35:03.666Z,-3.10
2018-03-20T01:39:58.052Z,-3.20
2018-03-20T01:44:52.488Z,-3.30
2018-03-20T01:49:46.693Z,-3.30
2018-03-20T01:54:40.992Z,-3.40
2018-03-20T01:59:35.523Z,-3.40
2018-03-20T02:04:30.000Z,-3.50
2018-03-20T02:09:24.717Z,-3.50
2018-03-20T02:14:19.239Z,-3.50
2018-03-20T02:19:13.758Z,-3.50
2018-03-20T02:24:09.238Z,-3.50
2018-03-20T02:29:04.384Z,-3.60
2018-03-20T02:33:58.956Z,-3.60
2018-03-20T02:38:53.305Z,-3.50
2018-03-20T02:43:47.837Z,-3.50
2018-03-20T02:48:42.275Z,-3.60
2018-03-20T02:53:36.611Z,-3.60
2018-03-20T02:58:31.050Z,-3.60
2018-03-20T03:03:26.132Z,-3.70
2018-03-20T03:08:20.697Z,-3.70
2018-03-20T03:13:15.084Z,-3.70
2018-03-20T03:18:09.496Z,-3.60
2018-03-20T03:23:03.834Z,-3.40
2018-03-20T03:27:58.138Z,-3.00
2018-03-20T03:32:52.616Z,-2.60
2018-03-20T03:37:46.911Z,-2.30
2018-03-20T03:42:41.380Z,-2.00
2018-03-20T03:47:36.435Z,-1.60
2018-03-20T03:52:30.843Z,-1.60
2018-03-20T03:57:25.153Z,-1.40
2018-03-20T04:02:19.570Z,-1.30
2018-03-20T04:07:14.734Z,-1.00
2018-03-20T04:12:10.001Z,-0.90
2018-03-20T04:17:04.499Z,-0.90
2018-03-20T04:21:59.369Z,-0.80
2018-03-20T04:26:53.852Z,-0.70
2018-03-20T04:31:48.167Z,-0.70
2018-03-20T04:36:43.994Z,-0.60
2018-03-20T04:41:38.556Z,-0.60
2018-03-20T04:46:32.864Z,-0.50
2018-03-20T04:51:27.172Z,-0.40
2018-03-20T04:56:21.488Z,-0.30
2018-03-20T05:01:15.796Z,-0.20
2018-03-20T05:06:10.125Z,-0.20
2018-03-20T05:11:05.190Z,-0.10
2018-03-20T05:15:59.357Z,-0.10
2018-03-20T05:20:53.479Z,0.00
2018-03-20T05:25:47.600Z,0.00
2018-03-20T05:30:41.852Z,0.00
2018-03-20T05:35:35.976Z,0.00
2018-03-20T05:40:30.099Z,0.10
2018-03-20T05:45:24.236Z,0.20
2018-03-20T05:50:24.044Z,0.20
2018-03-20T05:55:18.930Z,0.20
2018-03-20T06:00:13.238Z,0.20
2018-03-20T06:05:07.550Z,0.20
2018-03-20T06:10:01.869Z,0.10
2018-03-20T06:14:56.946Z,0.00
2018-03-20T06:19:51.276Z,0.00
2018-03-20T06:24:46.492Z,0.00
2018-03-20T06:29:40.824Z,-0.10
2018-03-20T06:34:35.931Z,0.00
2018-03-20T06:39:30.300Z,0.00
2018-03-20T06:44:24.608Z,0.00
2018-03-20T06:49:19.058Z,0.10
2018-03-20T06:54:14.148Z,0.10
2018-03-20T06:59:08.465Z,0.10
2018-03-20T07:04:03.708Z,0.30
2018-03-20T07:08:58.009Z,0.20
2018-03-20T07:13:52.444Z,0.30
2018-03-20T07:18:46.761Z,0.40
2018-03-20T07:23:41.254Z,0.40
2018-03-20T07:28:35.611Z,0.50
2018-03-20T07:33:29.941Z,0.70
2018-03-20T07:38:24.331Z,0.80
2018-03-20T07:43:18.630Z,0.90
2018-03-20T07:48:12.944Z,1.10
2018-03-20T07:53:07.377Z,1.40
2018-03-20T07:58:01.682Z,1.80
2018-03-20T08:02:56.203Z,1.90
2018-03-20T08:07:50.487Z,2.00
2018-03-20T08:12:45.062Z,2.20
2018-03-20T08:17:39.390Z,2.40
2018-03-20T08:22:33.934Z,2.60
2018-03-20T08:27:29.258Z,2.80
2018-03-20T08:32:24.333Z,2.80
2018-03-20T08:37:18.930Z,2.80
2018-03-20T08:42:13.559Z,2.80
2018-03-20T08:47:07.883Z,2.80
2018-03-20T08:52:02.975Z,2.50
2018-03-20T08:56:57.291Z,2.40
2018-03-20T09:01:52.376Z,2.90
2018-03-20T09:06:46.737Z,2.90
2018-03-20T09:11:41.822Z,3.80
2018-03-20T09:16:36.151Z,3.80
2018-03-20T09:21:31.219Z,5.80
2018-03-20T09:26:25.537Z,5.80
2018-03-20T09:31:20.130Z,6.80
2018-03-20T09:36:14.526Z,7.60
2018-03-20T09:41:08.828Z,8.40
2018-03-20T09:46:03.129Z,10.20
2018-03-20T09:50:57.459Z,14.20
2018-03-20T09:55:52.787Z,18.30
2018-03-20T10:00:47.088Z,18.20
2018-03-20T10:05:41.407Z,15.40
2018-03-20T10:10:36.308Z,10.10
2018-03-20T10:15:30.652Z,10.10
2018-03-20T10:20:25.043Z,8.90
2018-03-20T10:25:20.134Z,7.50
2018-03-20T10:30:14.669Z,7.40
2018-03-20T10:35:09.821Z,7.50
2018-03-20T10:40:04.133Z,7.50
2018-03-20T10:44:58.434Z,7.20
2018-03-20T10:49:53.000Z,6.50
2018-03-20T10:54:47.472Z,6.40
2018-03-20T10:59:41.860Z,6.00
2018-03-20T11:04:36.176Z,6.30
2018-03-20T11:09:30.465Z,6.50
2018-03-20T11:14:24.810Z,6.50
2018-03-20T11:19:19.856Z,6.50
2018-03-20T11:24:14.601Z,6.50
2018-03-20T11:29:09.086Z,6.60
2018-03-20T11:34:03.386Z,6.50
2018-03-20T11:38:59.368Z,6.60
2018-03-20T11:43:54.662Z,6.60
2018-03-20T11:48:49.288Z,6.50
2018-03-20T11:53:43.602Z,6.70
2018-03-20T11:58:38.688Z,6.90
2018-03-20T12:03:33.071Z,6.90
2018-03-20T12:24:25.299Z,6.80
2018-03-20T12:29:19.762Z,6.80
2018-03-20T12:34:14.074Z,7.00
2018-03-20T12:39:08.378Z,7.10
2018-03-20T12:44:03.465Z,7.40
2018-03-20T12:48:57.769Z,7.40
2018-03-20T12:53:52.088Z,7.40
2018-03-20T12:58:46.484Z,7.40
2018-03-20T13:03:40.776Z,7.50
2018-03-20T13:08:34.121Z,7.50
2018-03-20T13:13:28.437Z,7.70
2018-03-20T13:18:22.742Z,7.80
2018-03-20T13:23:17.148Z,7.90
2018-03-20T13:28:11.595Z,7.90
2018-03-20T13:33:06.672Z,8.10
2018-03-20T13:38:00.984Z,8.00
2018-03-20T13:42:55.284Z,8.20
2018-03-20T13:47:49.601Z,8.10
2018-03-20T13:52:49.141Z,8.20
2018-03-20T13:57:39.200Z,8.40
2018-03-20T14:02:33.521Z,8.30
2018-03-20T14:07:27.886Z,8.40
2018-03-20T14:12:22.203Z,8.50
2018-03-20T14:17:16.510Z,8.40
2018-03-20T14:22:10.812Z,8.30
2018-03-20T14:27:05.231Z,8.30
2018-03-20T14:31:59.564Z,8.30
2018-03-20T14:36:54.642Z,8.20
2018-03-20T14:41:48.941Z,8.20
2018-03-20T14:46:43.282Z,8.10
2018-03-20T14:51:38.539Z,8.20
2018-03-20T14:56:37.341Z,8.20
2018-03-20T15:01:31.692Z,8.10
2018-03-20T15:06:25.981Z,8.20
2018-03-20T15:11:20.488Z,8.10
2018-03-20T15:16:14.997Z,8.20
2018-03-20T15:21:09.323Z,8.20
2018-03-20T15:26:03.730Z,8.30
2018-03-20T15:30:58.831Z,8.10
2018-03-20T15:35:55.596Z,8.10
2018-03-20T15:40:50.081Z,8.00
2018-03-20T15:45:44.401Z,7.90
2018-03-20T15:50:39.514Z,7.80
2018-03-20T15:55:33.816Z,7.80
2018-03-20T16:00:28.217Z,7.60
2018-03-20T16:05:22.522Z,7.60
2018-03-20T16:10:16.825Z,7.60
2018-03-20T16:15:11.127Z,7.60
2018-03-20T16:20:04.964Z,7.50
2018-03-20T16:24:59.554Z,7.50
2018-03-20T16:29:54.646Z,7.30
2018-03-20T16:34:49.771Z,7.30
2018-03-20T16:39:44.567Z,7.20
2018-03-20T16:44:38.881Z,7.10
2018-03-20T16:49:33.432Z,7.10
2018-03-20T16:54:27.839Z,7.10
2018-03-20T16:59:22.187Z,7.10
2018-03-20T17:04:16.907Z,7.00
2018-03-20T17:09:11.496Z,7.00
2018-03-20T17:14:05.825Z,7.00
2018-03-20T17:19:00.680Z,6.80
2018-03-20T17:23:54.994Z,6.60
2018-03-20T17:28:49.535Z,6.60
2018-03-20T17:33:44.042Z,6.40
2018-03-20T17:38:38.348Z,6.30
2018-03-20T17:43:32.679Z,6.20
2018-03-20T17:48:27.784Z,6.10
2018-03-20T17:53:22.258Z,6.10
2018-03-20T17:58:20.510Z,6.00
2018-03-20T18:03:16.368Z,5.90
2018-03-20T18:08:11.524Z,5.80
2018-03-20T18:13:06.456Z,5.60
2018-03-20T18:18:01.403Z,5.50
2018-03-20T18:22:56.774Z,5.40
2018-03-20T18:27:51.222Z,5.40
2018-03-20T18:32:45.522Z,5.30
2018-03-20T18:37:39.932Z,5.20
2018-03-20T18:42:35.018Z,4.80
2018-03-20T18:47:29.310Z,4.80
2018-03-20T18:52:23.639Z,4.70
2018-03-20T18:57:17.939Z,4.60
2018-03-20T19:02:12.554Z,4.50
2018-03-20T19:07:07.137Z,4.50
2018-03-20T19:12:01.711Z,4.40
2018-03-20T19:16:56.910Z,4.40
2018-03-20T19:21:52.227Z,4.30
2018-03-20T19:26:47.402Z,4.20
2018-03-20T19:31:42.687Z,4.20
2018-03-20T19:36:38.707Z,4.00
2018-03-20T19:41:35.438Z,3.80
2018-03-20T19:46:31.765Z,3.60
2018-03-20T19:51:26.812Z,3.60
2018-03-20T19:56:24.206Z,3.50
2018-03-20T20:01:19.758Z,3.50
2018-03-20T20:06:16.648Z,3.20
2018-03-20T20:11:11.379Z,3.20
2018-03-20T20:16:06.727Z,3.20
2018-03-20T20:21:02.970Z,3.30
2018-03-20T20:25:59.783Z,3.20
2018-03-20T20:30:55.663Z,3.10
2018-03-20T20:35:52.197Z,3.00
2018-03-20T20:40:47.204Z,3.00
2018-03-20T20:45:42.969Z,3.00
2018-03-20T20:50:39.407Z,3.00
2018-03-20T20:55:34.841Z,3.00
2018-03-20T21:00:30.172Z,3.00
2018-03-20T21:05:26.402Z,2.80
2018-03-20T21:10:21.275Z,2.80
2018-03-20T21:15:17.176Z,2.70
2018-03-20T21:20:13.085Z,2.60
2018-03-20T21:25:10.349Z,2.70
2018-03-20T21:30:05.270Z,2.60
2018-03-20T21:34:59.647Z,2.60
2018-03-20T21:39:54.021Z,2.50
2018-03-20T21:44:48.636Z,2.30
2018-03-20T21:49:42.971Z,2.10
2018-03-20T21:54:37.576Z,2.10
2018-03-20T21:59:32.148Z,2.00
2018-03-20T22:04:27.291Z,1.80
2018-03-20T22:09:22.696Z,1.70
2018-03-20T22:14:17.203Z,1.70
2018-03-20T22:19:11.513Z,1.60
2018-03-20T22:24:06.709Z,1.40
2018-03-20T22:29:00.993Z,1.40
2018-03-20T22:33:55.334Z,1.30
2018-03-20T22:38:50.927Z,1.30
2018-03-20T22:43:45.284Z,1.30
2018-03-20T22:48:40.344Z,1.40
2018-03-20T22:53:34.658Z,1.40
2018-03-20T22:58:29.782Z,1.40
2018-03-20T23:03:24.244Z,1.40
2018-03-20T23:08:18.881Z,1.20
2018-03-20T23:13:13.247Z,1.10
2018-03-20T23:18:08.312Z,1.00
2018-03-20T23:23:02.622Z,1.00
2018-03-20T23:27:57.029Z,1.00
2018-03-20T23:32:51.597Z,0.90
2018-03-20T23:37:46.300Z,0.80
2018-03-20T23:42:40.838Z,0.60
2018-03-20T23:47:35.537Z,0.50
2018-03-20T23:52:29.804Z,0.40
2018-03-20T23:57:25.026Z,0.20
